Time;durP1;ratioP1;P1;durP2;ratioP2;P2;SDS_P1;SDS_P2;PMS_P1;PMS_P2;Temp;Humidity;BMP_temperature;BMP_pressure;BME280_temperature;BME280_humidity;BME280_pressure;Samples;Min_cycle;Max_cycle;Signal;HPM_P1;HPM_P2
2024/04/09 00:01:48;;;;;;;;;1.00;1.00;;;;;;;;5361794;26;8840;-78
2024/04/09 00:04:13;;;;;;;;;0.00;0.00;;;;;;;;5354293;26;9847;-78
2024/04/09 00:06:38;;;;;;;;;2.33;0.00;;;;;;;;5385074;26;8895;-78
2024/04/09 00:09:05;;;;;;;;;0.00;0.00;;;;;;;;5354770;26;8930;-78
2024/04/09 00:11:31;;;;;;;;;0.50;0.00;;;;;;;;5385507;26;8819;-78
2024/04/09 00:13:59;;;;;;;;;1.00;0.00;;;;;;;;5372730;26;8899;-77
2024/04/09 00:16:27;;;;;;;;;0.00;0.00;;;;;;;;5376171;26;8846;-78
2024/04/09 00:18:53;;;;;;;;;0.50;0.00;;;;;;;;5382824;26;8842;-76
2024/04/09 00:21:19;;;;;;;;;0.25;0.00;;;;;;;;5384315;26;8824;-78
2024/04/09 00:23:45;;;;;;;;;2.33;0.00;;;;;;;;5384752;26;8808;-78
2024/04/09 00:26:10;;;;;;;;;0.00;0.00;;;;;;;;5383942;26;8871;-78
2024/04/09 00:28:38;;;;;;;;;2.00;0.00;;;;;;;;5384279;26;8984;-77
2024/04/09 00:31:04;;;;;;;;;1.25;0.00;;;;;;;;5384497;26;8832;-78
2024/04/09 00:33:29;;;;;;;;;0.75;0.75;;;;;;;;5384584;26;8812;-77
2024/04/09 00:35:55;;;;;;;;;0.00;0.00;;;;;;;;5381278;26;8875;-79
2024/04/09 00:38:23;;;;;;;;;0.00;0.00;;;;;;;;5362952;26;8883;-79
2024/04/09 00:40:49;;;;;;;;;0.00;0.00;;;;;;;;5351810;26;8852;-79
2024/04/09 00:43:14;;;;;;;;;0.00;0.00;;;;;;;;5382074;26;8820;-78
2024/04/09 00:45:43;;;;;;;;;1.00;0.00;;;;;;;;5383736;26;8895;-79
2024/04/09 00:48:09;;;;;;;;;2.50;1.00;;;;;;;;5382977;26;8849;-77
2024/04/09 00:50:34;;;;;;;;;0.00;0.00;;;;;;;;5375567;26;8816;-78
2024/04/09 00:53:00;;;;;;;;;0.00;0.00;;;;;;;;5375539;26;8954;-76
2024/04/09 00:55:25;;;;;;;;;0.00;0.00;;;;;;;;5376742;26;9008;-79
2024/04/09 00:57:52;;;;;;;;;0.00;0.00;;;;;;;;5373469;26;9030;-77
2024/04/09 01:00:17;;;;;;;;;0.75;0.00;;;;;;;;5376919;26;9029;-75
2024/04/09 01:02:43;;;;;;;;;0.67;0.00;;;;;;;;5350793;26;8879;-76
2024/04/09 01:05:09;;;;;;;;;0.00;0.00;;;;;;;;5379022;26;8820;-76
2024/04/09 01:07:35;;;;;;;;;3.75;1.25;;;;;;;;5346201;26;8722;-76
2024/04/09 01:10:00;;;;;;;;;2.67;1.67;;;;;;;;5349471;26;8887;-77
2024/04/09 01:12:25;;;;;;;;;0.67;0.67;;;;;;;;5382397;26;8864;-76
2024/04/09 01:14:51;;;;;;;;;3.25;0.00;;;;;;;;5356024;26;8811;-75
2024/04/09 01:17:18;;;;;;;;;0.00;0.00;;;;;;;;5352300;26;8871;-74
2024/04/09 01:19:44;;;;;;;;;0.00;0.00;;;;;;;;5382085;26;8821;-75
2024/04/09 01:22:09;;;;;;;;;0.00;0.00;;;;;;;;5383369;26;8883;-76
2024/04/09 01:24:34;;;;;;;;;0.67;0.00;;;;;;;;5379748;26;8899;-76
2024/04/09 01:27:00;;;;;;;;;0.00;0.00;;;;;;;;5381193;26;8868;-76
2024/04/09 01:29:26;;;;;;;;;2.50;0.00;;;;;;;;5348471;26;8990;-76
2024/04/09 01:31:52;;;;;;;;;0.75;0.75;;;;;;;;5380447;26;8832;-77
2024/04/09 01:34:18;;;;;;;;;1.67;0.00;;;;;;;;5361739;26;8914;-77
2024/04/09 01:36:43;;;;;;;;;2.00;0.67;;;;;;;;5335715;26;9493;-77
2024/04/09 01:39:08;;;;;;;;;1.00;0.00;;;;;;;;5341608;26;8903;-76
2024/04/09 01:41:38;;;;;;;;;1.33;1.33;;;;;;;;5360299;26;8879;-77
2024/04/09 01:44:04;;;;;;;;;0.25;0.25;;;;;;;;5346656;26;8875;-76
2024/04/09 01:46:29;;;;;;;;;1.00;0.00;;;;;;;;5344167;26;9002;-76
2024/04/09 01:48:54;;;;;;;;;1.00;1.00;;;;;;;;5350473;26;8915;-77
2024/04/09 01:51:19;;;;;;;;;3.00;0.00;;;;;;;;5351818;26;8860;-77
2024/04/09 01:53:48;;;;;;;;;0.00;0.00;;;;;;;;5365515;26;8910;-76
2024/04/09 01:56:13;;;;;;;;;1.00;0.00;;;;;;;;5364381;26;8832;-78
2024/04/09 01:58:39;;;;;;;;;0.33;0.00;;;;;;;;5375948;26;8954;-76
2024/04/09 02:01:09;;;;;;;;;3.67;2.00;;;;;;;;5345340;26;8854;-77
2024/04/09 02:03:35;;;;;;;;;1.25;0.00;;;;;;;;5354989;26;8831;-77
2024/04/09 02:06:02;;;;;;;;;0.00;0.00;;;;;;;;5362510;26;10413;-75
2024/04/09 02:08:27;;;;;;;;;0.25;0.00;;;;;;;;5382655;26;9233;-77
2024/04/09 02:10:53;;;;;;;;;2.00;0.67;;;;;;;;5382609;26;8871;-75
2024/04/09 02:13:19;;;;;;;;;1.00;1.00;;;;;;;;5382271;26;10185;-77
2024/04/09 02:15:44;;;;;;;;;0.00;0.00;;;;;;;;5381694;26;8816;-77
2024/04/09 02:18:10;;;;;;;;;0.00;0.00;;;;;;;;5382701;26;8867;-77
2024/04/09 02:20:36;;;;;;;;;2.25;0.00;;;;;;;;5381281;26;8826;-76
2024/04/09 02:23:03;;;;;;;;;0.50;0.00;;;;;;;;5378109;26;10937;-75
2024/04/09 02:25:29;;;;;;;;;2.50;0.00;;;;;;;;5354870;26;8812;-76
2024/04/09 02:27:54;;;;;;;;;0.00;0.00;;;;;;;;5373444;26;8978;-75
2024/04/09 02:30:19;;;;;;;;;2.67;0.00;;;;;;;;5385593;26;8883;-76
2024/04/09 02:32:45;;;;;;;;;0.00;0.00;;;;;;;;5409163;26;8910;-76
2024/04/09 02:35:10;;;;;;;;;2.33;1.00;;;;;;;;5371402;26;8910;-77
2024/04/09 02:37:36;;;;;;;;;2.00;0.00;;;;;;;;5386298;26;8943;-74
2024/04/09 02:40:04;;;;;;;;;1.00;0.00;;;;;;;;5373787;26;8850;-76
2024/04/09 02:42:29;;;;;;;;;1.00;1.00;;;;;;;;5381813;26;8816;-76
2024/04/09 02:44:55;;;;;;;;;1.67;1.00;;;;;;;;5385226;26;8949;-78
2024/04/09 02:47:20;;;;;;;;;1.00;1.00;;;;;;;;5373644;26;8864;-75
2024/04/09 02:49:45;;;;;;;;;0.00;0.00;;;;;;;;5356936;26;8896;-77
2024/04/09 02:52:11;;;;;;;;;0.00;0.00;;;;;;;;5383802;26;8898;-76
2024/04/09 02:54:36;;;;;;;;;2.67;1.67;;;;;;;;5365007;26;9953;-76
2024/04/09 02:57:02;;;;;;;;;2.67;1.00;;;;;;;;5383056;26;12403;-76
2024/04/09 02:59:27;;;;;;;;;2.00;1.00;;;;;;;;5382639;26;8828;-76
2024/04/09 03:01:53;;;;;;;;;0.00;0.00;;;;;;;;5354756;26;8910;-76
2024/04/09 03:04:18;;;;;;;;;0.00;0.00;;;;;;;;5383580;26;8880;-75
2024/04/09 03:06:43;;;;;;;;;0.00;0.00;;;;;;;;5384476;26;8995;-76
2024/04/09 03:09:10;;;;;;;;;1.00;1.00;;;;;;;;5364380;26;8891;-76
2024/04/09 03:11:35;;;;;;;;;5.50;3.25;;;;;;;;5382818;26;8793;-76
2024/04/09 03:14:10;;;;;;;;;3.00;3.00;;;;;;;;5384718;26;9898;-74
2024/04/09 03:16:36;;;;;;;;;2.75;2.75;;;;;;;;5331590;26;8864;-77
2024/04/09 03:19:01;;;;;;;;;3.00;2.00;;;;;;;;5352755;26;8958;-76
2024/04/09 03:21:26;;;;;;;;;1.67;0.00;;;;;;;;5375559;26;8934;-76
2024/04/09 03:23:52;;;;;;;;;0.00;0.00;;;;;;;;5328255;26;8880;-76
2024/04/09 03:26:17;;;;;;;;;0.67;0.00;;;;;;;;5373299;26;8998;-77
2024/04/09 03:28:42;;;;;;;;;1.00;0.00;;;;;;;;5383670;26;8971;-76
2024/04/09 03:31:09;;;;;;;;;2.67;1.33;;;;;;;;5367685;26;8856;-76
2024/04/09 03:33:34;;;;;;;;;0.00;0.00;;;;;;;;5370153;26;8879;-74
2024/04/09 03:36:00;;;;;;;;;0.00;0.00;;;;;;;;5368528;26;8899;-76
2024/04/09 03:38:25;;;;;;;;;4.67;2.00;;;;;;;;5378223;26;8834;-76
2024/04/09 03:41:01;;;;;;;;;3.33;0.00;;;;;;;;5351709;26;8840;-76
2024/04/09 03:43:27;;;;;;;;;0.00;0.00;;;;;;;;5344203;26;8800;-76
2024/04/09 03:46:06;;;;;;;;;0.00;0.00;;;;;;;;5335486;26;8874;-74
2024/04/09 03:48:31;;;;;;;;;0.00;0.00;;;;;;;;5383008;26;9741;-76
2024/04/09 03:50:57;;;;;;;;;1.00;0.00;;;;;;;;5351896;26;8887;-77
2024/04/09 03:53:22;;;;;;;;;0.00;0.00;;;;;;;;5384133;26;8925;-75
2024/04/09 03:55:55;;;;;;;;;0.00;0.00;;;;;;;;5337724;26;8880;-75
2024/04/09 03:58:20;;;;;;;;;2.50;0.00;;;;;;;;5351389;26;8812;-75
2024/04/09 04:00:55;;;;;;;;;0.00;0.00;;;;;;;;5373583;26;8871;-75
2024/04/09 04:03:20;;;;;;;;;0.00;0.00;;;;;;;;5378168;26;10286;-76
2024/04/09 04:05:53;;;;;;;;;2.00;0.00;;;;;;;;5382867;26;8876;-75
2024/04/09 04:08:18;;;;;;;;;2.00;2.00;;;;;;;;5357739;26;8895;-77
2024/04/09 04:10:51;;;;;;;;;3.33;1.33;;;;;;;;5396406;26;8872;-77
2024/04/09 04:13:16;;;;;;;;;2.75;1.00;;;;;;;;5379210;26;8820;-78
2024/04/09 04:15:41;;;;;;;;;0.00;0.00;;;;;;;;5377275;26;8894;-75
2024/04/09 04:18:07;;;;;;;;;1.00;0.00;;;;;;;;5380129;26;9490;-76
2024/04/09 04:20:32;;;;;;;;;0.67;0.00;;;;;;;;5360036;26;8898;-75
2024/04/09 04:22:57;;;;;;;;;0.67;0.00;;;;;;;;5365598;26;8871;-77
2024/04/09 04:25:22;;;;;;;;;0.67;0.00;;;;;;;;5367697;26;9010;-76
2024/04/09 04:27:47;;;;;;;;;0.00;0.00;;;;;;;;5370842;26;8851;-75
2024/04/09 04:30:13;;;;;;;;;3.00;0.00;;;;;;;;5382441;26;9789;-74
2024/04/09 04:32:40;;;;;;;;;1.00;0.00;;;;;;;;5378465;26;10585;-77
2024/04/09 04:35:05;;;;;;;;;0.00;0.00;;;;;;;;5359913;26;9864;-80
2024/04/09 04:37:30;;;;;;;;;0.00;0.00;;;;;;;;5364621;26;8914;-77
2024/04/09 04:39:56;;;;;;;;;0.00;0.00;;;;;;;;5370133;26;8887;-77
2024/04/09 04:42:21;;;;;;;;;1.67;1.00;;;;;;;;5343928;26;8925;-78
2024/04/09 04:44:46;;;;;;;;;0.33;0.00;;;;;;;;5380442;26;8871;-78
2024/04/09 04:47:11;;;;;;;;;0.00;0.00;;;;;;;;5376617;26;9804;-77
2024/04/09 04:49:37;;;;;;;;;0.00;0.00;;;;;;;;5374882;26;8914;-78
2024/04/09 04:52:04;;;;;;;;;1.33;0.00;;;;;;;;5380510;26;8890;-77
2024/04/09 04:54:29;;;;;;;;;0.00;0.00;;;;;;;;5383003;26;8823;-78
2024/04/09 04:56:54;;;;;;;;;2.00;0.33;;;;;;;;5374665;26;8918;-77
2024/04/09 04:59:19;;;;;;;;;0.00;0.00;;;;;;;;5379800;26;8824;-77
2024/04/09 05:01:45;;;;;;;;;2.00;0.67;;;;;;;;5331915;26;8891;-76
2024/04/09 05:04:10;;;;;;;;;5.33;3.00;;;;;;;;5381662;26;8860;-76
2024/04/09 05:06:35;;;;;;;;;1.33;0.00;;;;;;;;5370734;26;8914;-80
2024/04/09 05:09:01;;;;;;;;;0.00;0.00;;;;;;;;5381617;26;8867;-78
2024/04/09 05:11:26;;;;;;;;;2.00;0.00;;;;;;;;5371170;26;8950;-79
2024/04/09 05:13:52;;;;;;;;;1.00;1.00;;;;;;;;5345958;26;10169;-78
2024/04/09 05:16:17;;;;;;;;;1.00;0.00;;;;;;;;5378114;26;9467;-78
2024/04/09 05:18:43;;;;;;;;;0.00;0.00;;;;;;;;5335882;26;8887;-79
2024/04/09 05:21:08;;;;;;;;;1.00;1.00;;;;;;;;5348223;26;10274;-78
2024/04/09 05:23:34;;;;;;;;;2.33;1.33;;;;;;;;5367522;26;8864;-77
2024/04/09 05:26:00;;;;;;;;;2.00;0.33;;;;;;;;5351707;26;8852;-79
2024/04/09 05:28:25;;;;;;;;;1.00;0.00;;;;;;;;5382119;26;9011;-78
2024/04/09 05:30:51;;;;;;;;;0.00;0.00;;;;;;;;5374896;26;8987;-79
2024/04/09 05:33:16;;;;;;;;;0.33;0.00;;;;;;;;5360571;26;8887;-78
2024/04/09 05:35:41;;;;;;;;;1.33;0.33;;;;;;;;5382912;26;8828;-78
2024/04/09 05:38:07;;;;;;;;;0.00;0.00;;;;;;;;5384108;26;8883;-79
2024/04/09 05:40:34;;;;;;;;;1.00;0.00;;;;;;;;5377311;26;8852;-78
2024/04/09 05:42:59;;;;;;;;;3.00;1.00;;;;;;;;5384171;26;8906;-78
2024/04/09 05:45:24;;;;;;;;;1.00;0.00;;;;;;;;5383985;26;8984;-78
2024/04/09 05:47:50;;;;;;;;;2.00;1.00;;;;;;;;5361050;26;8887;-79
2024/04/09 05:50:15;;;;;;;;;2.33;0.00;;;;;;;;5382707;26;8914;-78
2024/04/09 05:52:41;;;;;;;;;0.00;0.00;;;;;;;;5362409;26;8883;-78
2024/04/09 05:55:07;;;;;;;;;0.00;0.00;;;;;;;;5369413;26;8808;-79
2024/04/09 05:57:39;;;;;;;;;1.00;1.00;;;;;;;;5370626;26;8929;-79
2024/04/09 06:00:13;;;;;;;;;2.00;0.75;;;;;;;;5385979;26;8753;-78
2024/04/09 06:02:38;;;;;;;;;1.25;1.00;;;;;;;;5384244;26;10449;-79
2024/04/09 06:05:04;;;;;;;;;1.00;0.00;;;;;;;;5384676;26;8824;-78
2024/04/09 06:07:30;;;;;;;;;2.00;1.00;;;;;;;;5385520;26;8890;-78
2024/04/09 06:09:56;;;;;;;;;0.00;0.00;;;;;;;;5382944;26;8824;-79
2024/04/09 06:12:22;;;;;;;;;1.00;1.00;;;;;;;;5359390;26;8892;-78
2024/04/09 06:14:47;;;;;;;;;4.67;2.67;;;;;;;;5353977;26;8905;-79
2024/04/09 06:17:13;;;;;;;;;0.00;0.00;;;;;;;;5352145;26;9237;-77
2024/04/09 06:19:40;;;;;;;;;0.25;0.25;;;;;;;;5357687;26;8796;-78
2024/04/09 06:22:06;;;;;;;;;1.00;0.00;;;;;;;;5385169;26;8847;-79
2024/04/09 06:24:31;;;;;;;;;0.67;0.00;;;;;;;;5365182;26;8902;-79
2024/04/09 06:26:59;;;;;;;;;0.00;0.00;;;;;;;;5354879;26;8891;-78
2024/04/09 06:29:24;;;;;;;;;1.00;0.25;;;;;;;;5385405;26;8852;-78
2024/04/09 06:31:50;;;;;;;;;0.00;0.00;;;;;;;;5382175;26;8891;-79
2024/04/09 06:34:16;;;;;;;;;1.33;1.33;;;;;;;;5370147;26;8871;-78
2024/04/09 06:36:41;;;;;;;;;0.00;0.00;;;;;;;;5365400;26;8902;-79
2024/04/09 06:39:07;;;;;;;;;0.25;0.25;;;;;;;;5385332;26;8860;-77
2024/04/09 06:41:33;;;;;;;;;0.50;0.00;;;;;;;;5379922;26;9241;-78
2024/04/09 06:44:00;;;;;;;;;0.25;0.00;;;;;;;;5386764;26;8847;-79
2024/04/09 06:46:28;;;;;;;;;2.20;0.00;;;;;;;;5384205;26;8844;-79
2024/04/09 06:48:54;;;;;;;;;0.00;0.00;;;;;;;;5363279;26;8808;-77
2024/04/09 06:51:19;;;;;;;;;0.00;0.00;;;;;;;;5387077;26;9740;-80
2024/04/09 06:53:45;;;;;;;;;0.75;0.00;;;;;;;;5349028;26;8938;-80
2024/04/09 06:56:10;;;;;;;;;0.75;0.75;;;;;;;;5336291;26;8863;-79
2024/04/09 06:58:37;;;;;;;;;1.25;0.25;;;;;;;;5377062;26;8989;-81
2024/04/09 07:01:02;;;;;;;;;1.20;0.00;;;;;;;;5386112;26;9876;-80
2024/04/09 07:03:28;;;;;;;;;0.75;0.00;;;;;;;;5344443;26;8871;-81
2024/04/09 07:05:55;;;;;;;;;0.00;0.00;;;;;;;;5372113;26;8864;-81
2024/04/09 07:08:20;;;;;;;;;1.33;1.33;;;;;;;;5386160;26;9818;-77
2024/04/09 07:10:52;;;;;;;;;0.00;0.00;;;;;;;;5376283;26;8891;-79
2024/04/09 07:13:17;;;;;;;;;1.00;1.00;;;;;;;;5374805;26;8989;-79
2024/04/09 07:15:43;;;;;;;;;0.75;0.25;;;;;;;;5380703;26;8891;-79
2024/04/09 07:18:08;;;;;;;;;0.00;0.00;;;;;;;;5355119;26;8856;-79
2024/04/09 07:20:34;;;;;;;;;0.00;0.00;;;;;;;;5347876;26;8966;-79
2024/04/09 07:22:59;;;;;;;;;0.00;0.00;;;;;;;;5372709;26;8876;-79
2024/04/09 07:25:27;;;;;;;;;0.50;0.00;;;;;;;;5365973;26;9434;-77
2024/04/09 07:27:52;;;;;;;;;0.00;0.00;;;;;;;;5387642;26;8816;-79
2024/04/09 07:30:17;;;;;;;;;0.75;0.75;;;;;;;;5370631;26;8926;-79
2024/04/09 07:32:43;;;;;;;;;0.00;0.00;;;;;;;;5380569;26;8935;-78
2024/04/09 07:35:09;;;;;;;;;0.00;0.00;;;;;;;;5385057;26;8856;-78
2024/04/09 07:37:34;;;;;;;;;0.40;0.40;;;;;;;;5334547;26;8812;-78
2024/04/09 07:39:59;;;;;;;;;0.00;0.00;;;;;;;;5345984;26;8919;-77
2024/04/09 07:42:24;;;;;;;;;1.25;0.00;;;;;;;;5348397;26;8856;-77
2024/04/09 07:44:50;;;;;;;;;0.50;0.00;;;;;;;;5360148;26;8832;-77
2024/04/09 07:47:17;;;;;;;;;0.25;0.25;;;;;;;;5363356;26;8820;-78
2024/04/09 07:49:42;;;;;;;;;1.20;1.00;;;;;;;;5353776;26;11529;-79
2024/04/09 07:52:08;;;;;;;;;0.00;0.00;;;;;;;;5384381;26;8940;-79
2024/04/09 07:54:33;;;;;;;;;0.00;0.00;;;;;;;;5374249;26;8875;-76
2024/04/09 07:56:58;;;;;;;;;0.00;0.00;;;;;;;;5384009;26;8868;-79
2024/04/09 07:59:23;;;;;;;;;0.00;0.00;;;;;;;;5384899;26;8891;-78
2024/04/09 08:01:49;;;;;;;;;4.50;1.00;;;;;;;;5385728;26;8852;-78
2024/04/09 08:04:14;;;;;;;;;0.00;0.00;;;;;;;;5385536;26;8852;-78
2024/04/09 08:06:40;;;;;;;;;2.00;0.00;;;;;;;;5364679;26;8879;-77
2024/04/09 08:09:05;;;;;;;;;1.25;0.00;;;;;;;;5385141;26;8901;-78
2024/04/09 08:11:30;;;;;;;;;0.25;0.25;;;;;;;;5360884;26;11846;-77
2024/04/09 08:13:56;;;;;;;;;0.00;0.00;;;;;;;;5383906;26;8901;-79
2024/04/09 08:16:21;;;;;;;;;0.00;0.00;;;;;;;;5359683;26;9037;-77
2024/04/09 08:18:46;;;;;;;;;0.50;0.00;;;;;;;;5384622;26;8883;-78
2024/04/09 08:21:12;;;;;;;;;0.00;0.00;;;;;;;;5384388;26;8887;-77
2024/04/09 08:23:37;;;;;;;;;0.00;0.00;;;;;;;;5345129;26;8942;-78
2024/04/09 08:26:03;;;;;;;;;0.00;0.00;;;;;;;;5370808;26;9915;-77
2024/04/09 08:28:28;;;;;;;;;0.75;0.75;;;;;;;;5382159;26;8867;-79
2024/04/09 08:30:53;;;;;;;;;0.00;0.00;;;;;;;;5347832;26;9705;-78
2024/04/09 08:33:20;;;;;;;;;0.00;0.00;;;;;;;;5363590;26;8812;-78
2024/04/09 08:35:45;;;;;;;;;0.00;0.00;;;;;;;;5345777;26;8883;-80
2024/04/09 08:38:11;;;;;;;;;1.00;1.00;;;;;;;;5349502;26;8852;-78
2024/04/09 08:40:36;;;;;;;;;0.75;0.00;;;;;;;;5345243;26;8983;-80
2024/04/09 08:43:02;;;;;;;;;2.00;0.00;;;;;;;;5371746;26;8863;-77
2024/04/09 08:45:27;;;;;;;;;3.00;0.50;;;;;;;;5347984;26;8965;-80
2024/04/09 08:47:53;;;;;;;;;0.00;0.00;;;;;;;;5372899;26;8970;-78
2024/04/09 08:50:19;;;;;;;;;0.00;0.00;;;;;;;;5376649;26;8816;-77
2024/04/09 08:52:48;;;;;;;;;1.00;0.25;;;;;;;;5359717;26;8859;-79
2024/04/09 08:55:15;;;;;;;;;0.80;0.00;;;;;;;;5373788;26;8886;-79
2024/04/09 08:57:40;;;;;;;;;0.00;0.00;;;;;;;;5384429;26;8860;-79
2024/04/09 09:00:06;;;;;;;;;1.00;1.00;;;;;;;;5358013;26;8915;-79
2024/04/09 09:02:31;;;;;;;;;1.00;0.00;;;;;;;;5377001;26;8879;-80
2024/04/09 09:04:57;;;;;;;;;0.75;0.00;;;;;;;;5377436;26;8876;-81
2024/04/09 09:07:23;;;;;;;;;3.00;0.00;;;;;;;;5358660;26;8876;-78
2024/04/09 09:09:49;;;;;;;;;0.00;0.00;;;;;;;;5367229;26;8816;-78
2024/04/09 09:12:14;;;;;;;;;0.00;0.00;;;;;;;;5340970;26;9575;-78
2024/04/09 09:14:51;;;;;;;;;0.00;0.00;;;;;;;;5355033;26;8824;-80
2024/04/09 09:17:17;;;;;;;;;1.00;0.00;;;;;;;;5385840;26;8831;-79
2024/04/09 09:19:42;;;;;;;;;0.00;0.00;;;;;;;;5355836;26;9527;-80
2024/04/09 09:22:09;;;;;;;;;0.00;0.00;;;;;;;;5368592;26;8876;-79
2024/04/09 09:24:36;;;;;;;;;2.00;1.00;;;;;;;;5379117;26;8839;-79
2024/04/09 09:27:04;;;;;;;;;0.25;0.00;;;;;;;;5362357;26;8835;-80
2024/04/09 09:29:29;;;;;;;;;0.00;0.00;;;;;;;;5369024;26;8796;-81
2024/04/09 09:31:55;;;;;;;;;0.00;0.00;;;;;;;;5383030;26;8995;-79
2024/04/09 09:34:28;;;;;;;;;0.33;0.00;;;;;;;;5383962;26;8964;-79
2024/04/09 09:36:59;;;;;;;;;1.00;0.00;;;;;;;;5365835;26;8848;-78
2024/04/09 09:39:28;;;;;;;;;0.50;0.50;;;;;;;;5376765;26;8867;-79
2024/04/09 09:41:57;;;;;;;;;0.00;0.00;;;;;;;;5347227;26;8808;-78
2024/04/09 09:44:23;;;;;;;;;1.00;1.00;;;;;;;;5362103;26;8816;-78
2024/04/09 09:46:49;;;;;;;;;0.00;0.00;;;;;;;;5364558;26;8864;-80
2024/04/09 09:49:16;;;;;;;;;0.00;0.00;;;;;;;;5382990;26;8793;-79
2024/04/09 09:51:41;;;;;;;;;2.00;0.00;;;;;;;;5353701;26;8864;-79
2024/04/09 09:54:07;;;;;;;;;0.25;0.25;;;;;;;;5361948;26;8879;-79
2024/04/09 09:56:35;;;;;;;;;1.00;1.00;;;;;;;;5338652;26;8941;-79
2024/04/09 09:59:01;;;;;;;;;0.80;0.00;;;;;;;;5374518;26;8773;-80
2024/04/09 10:01:28;;;;;;;;;0.00;0.00;;;;;;;;5331822;26;8801;-81
2024/04/09 10:03:54;;;;;;;;;0.00;0.00;;;;;;;;5373209;26;9859;-79
2024/04/09 10:06:20;;;;;;;;;0.00;0.00;;;;;;;;5358464;26;8992;-79
2024/04/09 10:08:47;;;;;;;;;0.00;0.00;;;;;;;;5381570;26;11653;-79
2024/04/09 10:11:12;;;;;;;;;0.00;0.00;;;;;;;;5342553;26;8812;-79
2024/04/09 10:13:45;;;;;;;;;2.00;0.00;;;;;;;;5376427;26;8896;-80
2024/04/09 10:16:15;;;;;;;;;0.00;0.00;;;;;;;;5363080;26;8914;-80
2024/04/09 10:18:41;;;;;;;;;0.25;0.25;;;;;;;;5380965;26;8902;-79
2024/04/09 10:21:07;;;;;;;;;0.00;0.00;;;;;;;;5380102;26;10390;-79
2024/04/09 10:23:36;;;;;;;;;0.00;0.00;;;;;;;;5358952;26;8918;-81
2024/04/09 10:26:03;;;;;;;;;0.40;0.40;;;;;;;;5342524;26;9919;-79
2024/04/09 10:28:29;;;;;;;;;0.00;0.00;;;;;;;;5362575;26;9645;-80
2024/04/09 10:30:59;;;;;;;;;3.00;1.60;;;;;;;;5378510;26;8734;-79
2024/04/09 10:33:27;;;;;;;;;2.20;1.60;;;;;;;;5336101;26;8838;-78
2024/04/09 10:35:57;;;;;;;;;0.40;0.00;;;;;;;;5373224;26;8832;-79
2024/04/09 10:38:24;;;;;;;;;1.60;1.60;;;;;;;;5358797;26;9097;-78
2024/04/09 10:40:49;;;;;;;;;1.00;1.00;;;;;;;;5349007;26;8812;-79
2024/04/09 10:43:15;;;;;;;;;0.00;0.00;;;;;;;;5351976;26;8915;-79
2024/04/09 10:45:41;;;;;;;;;1.00;0.00;;;;;;;;5380131;26;8816;-79
2024/04/09 10:48:07;;;;;;;;;4.40;1.20;;;;;;;;5379216;26;8827;-80
2024/04/09 10:50:32;;;;;;;;;1.75;0.75;;;;;;;;5387494;26;10222;-79
2024/04/09 10:52:58;;;;;;;;;1.00;1.00;;;;;;;;5379533;26;8892;-80
2024/04/09 10:55:23;;;;;;;;;3.25;0.00;;;;;;;;5343326;26;8883;-79
2024/04/09 10:57:51;;;;;;;;;1.50;0.50;;;;;;;;5341694;26;8934;-79
2024/04/09 11:00:16;;;;;;;;;1.40;0.00;;;;;;;;5338041;26;8853;-80
2024/04/09 11:02:43;;;;;;;;;0.75;0.00;;;;;;;;5337422;26;8832;-79
2024/04/09 11:05:09;;;;;;;;;0.40;0.00;;;;;;;;5341721;26;8797;-78
2024/04/09 11:07:41;;;;;;;;;0.00;0.00;;;;;;;;5345013;26;8883;-83
2024/04/09 11:10:10;;;;;;;;;0.00;0.00;;;;;;;;5341111;26;10369;-82
2024/04/09 11:12:51;;;;;;;;;2.00;0.00;;;;;;;;5342992;26;8749;-82
2024/04/09 11:15:22;;;;;;;;;0.60;0.60;;;;;;;;5365463;26;8833;-82
2024/04/09 11:17:50;;;;;;;;;0.00;0.00;;;;;;;;5343098;26;8859;-79
2024/04/09 11:20:19;;;;;;;;;0.00;0.00;;;;;;;;5349711;26;8812;-83
2024/04/09 11:22:51;;;;;;;;;0.00;0.00;;;;;;;;5351855;26;8820;-82
2024/04/09 11:25:19;;;;;;;;;0.80;0.00;;;;;;;;5336726;26;9727;-81
2024/04/09 11:27:47;;;;;;;;;2.00;0.00;;;;;;;;5351263;26;8886;-82
2024/04/09 11:30:24;;;;;;;;;0.60;0.00;;;;;;;;5339962;26;8753;-84
2024/04/09 11:33:04;;;;;;;;;;;;;;;;;;;;;
2024/04/09 11:35:38;;;;;;;;;0.00;0.00;;;;;;;;5354337;26;34742;-81
2024/04/09 11:38:03;;;;;;;;;1.00;0.00;;;;;;;;5343849;26;8914;-83
2024/04/09 11:40:42;;;;;;;;;0.00;0.00;;;;;;;;5338992;26;8868;-83
2024/04/09 11:43:13;;;;;;;;;0.60;0.60;;;;;;;;5335416;26;8804;-83
2024/04/09 11:45:42;;;;;;;;;1.20;0.00;;;;;;;;5338553;26;8888;-83
2024/04/09 11:48:11;;;;;;;;;0.20;0.00;;;;;;;;5329093;26;8812;-84
2024/04/09 11:50:40;;;;;;;;;0.40;0.00;;;;;;;;5342828;26;8733;-82
2024/04/09 11:53:20;;;;;;;;;0.00;0.00;;;;;;;;5346627;26;8883;-82
2024/04/09 11:55:49;;;;;;;;;0.80;0.80;;;;;;;;5349674;26;8847;-82
2024/04/09 11:58:21;;;;;;;;;0.00;0.00;;;;;;;;5364368;26;8805;-83
2024/04/09 12:00:50;;;;;;;;;0.40;0.40;;;;;;;;5365242;26;8866;-84
2024/04/09 12:03:19;;;;;;;;;1.00;0.00;;;;;;;;5388156;26;8863;-82
2024/04/09 12:05:51;;;;;;;;;0.40;0.40;;;;;;;;5387248;26;8832;-81
2024/04/09 12:08:23;;;;;;;;;1.00;0.00;;;;;;;;5355971;26;8803;-82
2024/04/09 12:10:48;;;;;;;;;1.60;0.00;;;;;;;;5388287;26;8820;-82
2024/04/09 12:13:15;;;;;;;;;0.00;0.00;;;;;;;;5385165;26;8941;-83
2024/04/09 12:15:46;;;;;;;;;0.00;0.00;;;;;;;;5358990;26;8765;-82
2024/04/09 12:18:11;;;;;;;;;0.50;0.00;;;;;;;;5388807;26;8829;-84
2024/04/09 12:20:36;;;;;;;;;0.50;0.50;;;;;;;;5355655;26;8890;-83
2024/04/09 12:23:03;;;;;;;;;2.00;1.00;;;;;;;;5331293;26;8918;-81
2024/04/09 12:25:28;;;;;;;;;1.80;1.80;;;;;;;;5343244;26;8824;-82
2024/04/09 12:27:54;;;;;;;;;2.25;0.00;;;;;;;;5343751;26;8902;-83
2024/04/09 12:30:20;;;;;;;;;1.00;1.00;;;;;;;;5375218;26;8886;-84
2024/04/09 12:32:45;;;;;;;;;0.00;0.00;;;;;;;;5386127;26;11634;-83
2024/04/09 12:35:13;;;;;;;;;0.00;0.00;;;;;;;;5359347;26;8867;-83
2024/04/09 12:37:59;;;;;;;;;0.00;0.00;;;;;;;;5353370;26;8820;-82
2024/04/09 12:40:45;;;;;;;;;3.00;3.00;;;;;;;;5357861;26;8895;-82
2024/04/09 12:43:11;;;;;;;;;1.25;1.25;;;;;;;;5386408;26;8989;-82
2024/04/09 12:45:36;;;;;;;;;2.00;2.00;;;;;;;;5338817;26;8887;-83
2024/04/09 12:48:17;;;;;;;;;2.00;2.00;;;;;;;;5384892;26;9730;-82
2024/04/09 12:50:43;;;;;;;;;2.25;1.75;;;;;;;;5360085;26;8873;-82
2024/04/09 12:53:11;;;;;;;;;1.33;0.00;;;;;;;;5364656;26;8923;-83
2024/04/09 12:55:59;;;;;;;;;19.00;16.25;;;;;;;;5355035;26;8785;-85
2024/04/09 12:58:25;;;;;;;;;3.00;2.50;;;;;;;;5383758;26;8848;-84
2024/04/09 13:00:50;;;;;;;;;0.00;0.00;;;;;;;;5358411;26;8860;-81
2024/04/09 13:03:15;;;;;;;;;0.33;0.00;;;;;;;;5379298;26;8914;-81
2024/04/09 13:05:41;;;;;;;;;0.33;0.00;;;;;;;;5383094;26;8938;-82
2024/04/09 13:08:07;;;;;;;;;1.00;1.00;;;;;;;;5380379;26;8891;-79
2024/04/09 13:10:33;;;;;;;;;4.33;3.33;;;;;;;;5381147;26;11787;-79
2024/04/09 13:12:59;;;;;;;;;0.00;0.00;;;;;;;;5350575;26;9848;-82
2024/04/09 13:15:26;;;;;;;;;0.25;0.00;;;;;;;;5350442;26;8963;-79
2024/04/09 13:17:51;;;;;;;;;0.25;0.25;;;;;;;;5352404;26;8828;-83
2024/04/09 13:20:16;;;;;;;;;0.00;0.00;;;;;;;;5382339;26;10461;-82
2024/04/09 13:22:42;;;;;;;;;0.00;0.00;;;;;;;;5354895;26;8895;-78
2024/04/09 13:25:08;;;;;;;;;0.33;0.33;;;;;;;;5348457;26;8879;-76
2024/04/09 13:27:33;;;;;;;;;0.67;0.00;;;;;;;;5349589;26;8981;-80
2024/04/09 13:30:00;;;;;;;;;0.00;0.00;;;;;;;;5382145;26;8971;-81
2024/04/09 13:32:26;;;;;;;;;1.50;1.50;;;;;;;;5345443;26;8875;-83
2024/04/09 13:34:52;;;;;;;;;0.67;0.00;;;;;;;;5382187;26;8887;-82
2024/04/09 13:37:17;;;;;;;;;15.00;14.00;;;;;;;;5352685;26;9669;-81
2024/04/09 13:39:46;;;;;;;;;1.67;0.67;;;;;;;;5367400;26;8860;-82
2024/04/09 13:42:11;;;;;;;;;2.75;0.00;;;;;;;;5389763;26;8737;-83
2024/04/09 13:44:37;;;;;;;;;1.00;0.00;;;;;;;;5369588;26;8954;-82
2024/04/09 13:47:03;;;;;;;;;1.67;1.00;;;;;;;;5343502;26;8905;-83
2024/04/09 13:49:28;;;;;;;;;1.00;1.00;;;;;;;;5360962;26;9013;-83
2024/04/09 13:51:53;;;;;;;;;0.67;0.00;;;;;;;;5329826;26;8871;-83
2024/04/09 13:54:19;;;;;;;;;21.00;13.33;;;;;;;;5347990;26;8919;-81
2024/04/09 13:56:44;;;;;;;;;2.33;2.33;;;;;;;;5357974;26;8906;-81
2024/04/09 13:59:10;;;;;;;;;4.00;2.00;;;;;;;;5352716;26;9841;-81
2024/04/09 14:01:35;;;;;;;;;2.33;0.00;;;;;;;;5363196;26;8883;-83
2024/04/09 14:04:02;;;;;;;;;0.00;0.00;;;;;;;;5374784;26;8907;-81
2024/04/09 14:06:27;;;;;;;;;0.00;0.00;;;;;;;;5379686;26;8879;-81
2024/04/09 14:08:52;;;;;;;;;2.67;0.00;;;;;;;;5362463;26;8902;-81
2024/04/09 14:11:18;;;;;;;;;0.67;0.67;;;;;;;;5377087;26;8903;-81
2024/04/09 14:13:48;;;;;;;;;5.00;5.00;;;;;;;;5353011;26;10223;-82
2024/04/09 14:16:32;;;;;;;;;0.00;0.00;;;;;;;;5354424;26;8800;-80
2024/04/09 14:19:12;;;;;;;;;1.00;1.00;;;;;;;;5362566;26;8909;-81
2024/04/09 14:21:40;;;;;;;;;0.75;0.00;;;;;;;;5341307;26;8848;-82
2024/04/09 14:24:06;;;;;;;;;1.00;0.00;;;;;;;;5378878;26;8816;-81
2024/04/09 14:26:32;;;;;;;;;0.00;0.00;;;;;;;;5350659;26;8992;-81
2024/04/09 14:28:57;;;;;;;;;0.00;0.00;;;;;;;;5359949;26;9626;-81
2024/04/09 14:31:24;;;;;;;;;0.00;0.00;;;;;;;;5331161;26;8852;-81
2024/04/09 14:33:50;;;;;;;;;0.00;0.00;;;;;;;;5360029;26;8840;-82
2024/04/09 14:36:22;;;;;;;;;12.00;10.25;;;;;;;;5353094;26;8832;-83
2024/04/09 14:38:47;;;;;;;;;6.25;3.25;;;;;;;;5390436;26;8816;-83
2024/04/09 14:41:16;;;;;;;;;25.00;19.00;;;;;;;;5353444;26;8937;-82
2024/04/09 14:43:42;;;;;;;;;10.25;6.00;;;;;;;;5349175;26;8960;-81
2024/04/09 14:46:07;;;;;;;;;11.33;7.67;;;;;;;;5383885;26;8871;-83
2024/04/09 14:48:34;;;;;;;;;10.67;7.67;;;;;;;;5348889;26;8931;-84
2024/04/09 14:50:59;;;;;;;;;22.50;13.50;;;;;;;;5366461;26;8859;-82
2024/04/09 14:53:25;;;;;;;;;1.33;0.00;;;;;;;;5350216;26;8997;-81